Time;durP1;ratioP1;P1;durP2;ratioP2;P2;SDS_P1;SDS_P2;PMS_P1;PMS_P2;Temp;Humidity;BMP_temperature;BMP_pressure;BME280_temperature;BME280_humidity;BME280_pressure;Samples;Min_cycle;Max_cycle;Signal;HPM_P1;HPM_P2
2022/08/12 00:43:47;;;;;;;0.47;0.20;;;19.50;68.90;;;;;;5065169;28;20033;-96
2022/08/12 00:46:35;;;;;;;1.55;0.20;;;19.80;68.40;;;;;;5057346;28;20087;-94
2022/08/12 00:49:03;;;;;;;1.17;0.20;;;19.90;67.90;;;;;;5048950;28;20045;-94
2022/08/12 00:54:21;;;;;;;0.73;0.20;;;20.10;67.60;;;;;;5062300;28;20068;-94
2022/08/12 00:56:52;;;;;;;0.40;0.10;;;20.10;67.50;;;;;;5026256;28;20156;-94
2022/08/12 00:59:20;;;;;;;0.75;0.30;;;20.10;67.90;;;;;;5063644;28;20048;-94
2022/08/12 01:01:51;;;;;;;1.38;0.22;;;20.10;67.70;;;;;;5033517;28;20040;-94
2022/08/12 01:13:01;;;;;;;1.00;0.20;;;19.80;68.90;;;;;;5081260;28;20041;-93
2022/08/12 01:15:49;;;;;;;0.60;0.20;;;19.80;68.40;;;;;;5039884;28;20045;-92
2022/08/12 01:18:19;;;;;;;1.60;0.25;;;19.70;68.90;;;;;;5027059;28;20050;-94
2022/08/12 01:21:08;;;;;;;1.27;0.60;;;19.70;68.90;;;;;;5065178;28;20105;-92
2022/08/12 01:24:29;;;;;;;1.70;0.20;;;19.50;69.30;;;;;;5049064;28;20147;-94
2022/08/12 01:27:01;;;;;;;1.97;0.33;;;19.40;70.00;;;;;;5029673;28;20061;-96
2022/08/12 01:29:33;;;;;;;1.23;0.30;;;19.40;70.10;;;;;;5058816;28;20041;-95
2022/08/12 01:32:07;;;;;;;0.77;0.28;;;19.60;70.00;;;;;;5029186;28;20052;-96
2022/08/12 01:34:37;;;;;;;1.70;0.20;;;19.50;69.90;;;;;;5043297;28;20054;-94
2022/08/12 01:37:07;;;;;;;0.68;0.30;;;19.20;70.80;;;;;;5043336;28;20055;-94
2022/08/12 01:39:44;;;;;;;0.93;0.30;;;19.10;71.60;;;;;;5030011;28;20498;-94
2022/08/12 01:42:40;;;;;;;0.95;0.20;;;19.10;71.80;;;;;;5060505;28;20046;-92
2022/08/12 01:45:11;;;;;;;1.20;0.50;;;19.20;71.50;;;;;;5045836;28;20057;-93
2022/08/12 01:47:53;;;;;;;1.48;0.20;;;19.00;71.90;;;;;;5082337;28;20055;-94
2022/08/12 01:50:30;;;;;;;1.35;0.28;;;18.80;72.60;;;;;;5030650;28;20562;-94
2022/08/12 01:53:10;;;;;;;0.50;0.20;;;19.00;72.50;;;;;;5029425;28;20042;-90
2022/08/12 01:55:44;;;;;;;2.28;0.40;;;19.10;71.80;;;;;;5053620;28;20045;-95
2022/08/12 02:02:35;;;;;;;0.50;0.20;;;18.90;72.80;;;;;;5069232;28;20039;-95
2022/08/12 02:16:10;;;;;;;0.73;0.35;;;18.60;74.00;;;;;;5090777;22;20096;-94
2022/08/12 02:28:16;;;;;;;0.65;0.30;;;18.90;73.80;;;;;;5009972;23;20055;-93
2022/08/12 02:30:44;;;;;;;1.00;0.40;;;18.70;74.10;;;;;;4939485;28;20071;-95
2022/08/12 02:33:12;;;;;;;1.00;0.30;;;18.60;74.70;;;;;;4958909;28;20129;-93
2022/08/12 02:35:39;;;;;;;1.65;0.65;;;18.50;75.50;;;;;;4944706;28;20070;-94
2022/08/12 02:38:09;;;;;;;0.82;0.30;;;18.70;74.80;;;;;;4954796;28;20562;-95
2022/08/12 02:40:39;;;;;;;2.22;0.35;;;18.50;75.20;;;;;;4949732;28;20042;-93
2022/08/12 02:46:29;;;;;;;0.77;0.30;;;18.70;75.10;;;;;;5034558;23;20408;-92
2022/08/12 02:56:01;;;;;;;0.40;0.20;;;18.30;77.20;;;;;;4920521;23;20051;-91
2022/08/12 02:58:38;;;;;;;1.55;0.90;;;18.30;77.30;;;;;;4872034;29;20053;-94
2022/08/12 03:08:10;;;;;;;0.93;0.50;;;18.30;77.30;;;;;;4977683;23;20052;-92
2022/08/12 05:08:25;;;;;;;2.75;0.70;;;18.30;79.70;;;;;;5118265;23;20081;-93
2022/08/12 05:14:16;;;;;;;0.95;0.35;;;18.70;79.30;;;;;;4953692;23;20056;-93
2022/08/12 05:16:44;;;;;;;2.97;1.33;;;18.80;78.20;;;;;;4879494;29;20064;-95
2022/08/12 05:19:12;;;;;;;4.50;1.23;;;18.60;78.70;;;;;;4873853;29;20053;-92
2022/08/12 05:21:48;;;;;;;1.65;0.50;;;18.90;78.10;;;;;;4876831;29;20514;-93
2022/08/12 05:24:15;;;;;;;1.02;0.57;;;19.00;77.70;;;;;;4862047;29;20080;-93
2022/08/12 05:26:43;;;;;;;0.80;0.40;;;19.00;77.20;;;;;;4876371;29;20143;-92
2022/08/12 05:29:11;;;;;;;1.10;0.40;;;19.10;77.60;;;;;;4879758;29;20502;-92
2022/08/12 05:31:59;;;;;;;1.38;0.80;;;19.10;76.70;;;;;;4866126;29;20159;-94
2022/08/12 05:34:29;;;;;;;1.83;0.40;;;19.30;76.50;;;;;;4868345;29;20065;-92
2022/08/12 05:36:57;;;;;;;1.65;0.60;;;19.40;76.30;;;;;;4867156;29;20114;-94
2022/08/12 05:39:25;;;;;;;2.92;0.50;;;19.60;75.60;;;;;;4878019;29;20041;-93
2022/08/12 05:41:52;;;;;;;2.42;0.55;;;19.70;75.20;;;;;;4864566;29;20058;-89
2022/08/12 05:44:19;;;;;;;2.15;0.60;;;19.90;74.70;;;;;;4866135;29;20044;-94
2022/08/12 05:46:47;;;;;;;1.52;0.32;;;19.90;74.10;;;;;;4867813;29;20064;-92
2022/08/12 05:49:15;;;;;;;1.73;0.50;;;20.00;73.70;;;;;;4868595;29;20052;-96
2022/08/12 05:51:42;;;;;;;1.10;0.50;;;20.00;74.10;;;;;;4867197;29;20045;-94
2022/08/12 05:54:10;;;;;;;2.78;0.60;;;20.30;72.90;;;;;;4864208;29;20049;-90
2022/08/12 05:56:40;;;;;;;1.63;0.43;;;20.30;72.30;;;;;;4866570;29;20041;-91
2022/08/12 05:59:09;;;;;;;1.63;0.50;;;20.40;71.90;;;;;;4865452;29;20048;-93
2022/08/12 06:01:39;;;;;;;1.65;0.50;;;20.70;71.50;;;;;;4863181;29;20418;-93
2022/08/12 06:04:26;;;;;;;0.75;0.60;;;21.00;71.30;;;;;;4866789;29;20048;-90
2022/08/12 06:06:53;;;;;;;0.88;0.40;;;21.20;70.20;;;;;;4859944;29;20501;-92
2022/08/12 06:09:24;;;;;;;3.30;0.43;;;21.10;69.50;;;;;;4873846;29;20052;-96
2022/08/12 06:11:51;;;;;;;1.83;0.50;;;21.40;69.40;;;;;;4871261;29;20053;-93
2022/08/12 06:14:33;;;;;;;2.85;0.75;;;21.60;68.60;;;;;;4867993;29;20395;-93
2022/08/12 06:17:03;;;;;;;4.45;0.73;;;21.80;68.10;;;;;;4867023;29;20506;-90
2022/08/12 06:19:30;;;;;;;1.35;0.77;;;22.00;67.80;;;;;;4861244;29;20048;-91
2022/08/12 06:22:17;;;;;;;5.90;0.77;;;22.10;66.90;;;;;;4863937;29;20053;-90
2022/08/12 06:24:47;;;;;;;1.67;0.70;;;22.20;67.30;;;;;;4865881;29;20040;-93
2022/08/12 06:27:17;;;;;;;2.47;0.90;;;22.20;66.40;;;;;;4881550;29;20076;-93
2022/08/12 06:29:44;;;;;;;2.40;0.70;;;22.40;65.90;;;;;;4881442;29;20048;-90
2022/08/12 06:32:32;;;;;;;5.05;0.82;;;22.30;65.50;;;;;;4878283;29;20051;-89
2022/08/12 06:35:00;;;;;;;2.33;0.55;;;22.40;65.30;;;;;;4866209;29;20044;-90
2022/08/12 06:37:50;;;;;;;2.13;0.80;;;22.60;65.30;;;;;;4866713;29;20060;-90
2022/08/12 06:43:11;;;;;;;3.97;1.30;;;22.70;64.80;;;;;;4888495;29;20069;-90
2022/08/12 06:45:46;;;;;;;4.97;1.60;;;22.80;64.70;;;;;;4865380;29;20048;-91
2022/08/12 06:48:16;;;;;;;3.10;1.08;;;22.80;64.80;;;;;;4871105;29;20049;-92
2022/08/12 06:50:44;;;;;;;4.30;1.05;;;23.00;64.80;;;;;;4878453;29;20607;-90
2022/08/12 06:53:11;;;;;;;8.32;1.13;;;23.20;64.20;;;;;;4880021;29;20059;-91
2022/08/12 06:55:40;;;;;;;2.17;1.02;;;23.20;64.00;;;;;;4860133;29;20049;-88
2022/08/12 06:58:28;;;;;;;2.03;0.80;;;23.40;63.40;;;;;;4865488;29;20055;-93
2022/08/12 07:00:57;;;;;;;2.47;0.70;;;23.60;62.50;;;;;;4878291;29;20044;-89
2022/08/12 07:03:27;;;;;;;2.28;0.77;;;23.70;61.90;;;;;;4861168;29;20049;-94
2022/08/12 07:05:59;;;;;;;1.13;0.57;;;23.90;62.40;;;;;;4875222;29;20049;-87
2022/08/12 07:08:29;;;;;;;1.00;0.68;;;24.00;61.90;;;;;;4863311;29;20063;-94
2022/08/12 07:10:59;;;;;;;2.00;0.60;;;24.00;61.10;;;;;;4852558;29;20053;-90
2022/08/12 07:13:37;;;;;;;2.58;1.42;;;23.80;60.70;;;;;;4854068;29;20134;-90
2022/08/12 07:16:50;;;;;;;1.58;0.95;;;24.10;61.10;;;;;;4872302;29;20088;-88
2022/08/12 07:19:11;;;;;;;2.60;0.75;;;24.10;60.20;;;;;;4875900;29;20159;-88
2022/08/12 07:21:42;;;;;;;2.40;0.80;;;24.10;60.30;;;;;;4856267;29;20097;-91
2022/08/12 07:24:28;;;;;;;1.63;0.90;;;24.20;60.80;;;;;;4869664;29;20055;-89
2022/08/12 07:26:56;;;;;;;1.75;0.90;;;24.40;59.90;;;;;;4859700;29;20092;-90
2022/08/12 07:29:24;;;;;;;4.00;0.93;;;24.50;59.80;;;;;;4872748;29;20045;-88
2022/08/12 07:32:12;;;;;;;2.72;0.80;;;24.70;59.70;;;;;;4865377;29;20048;-89
2022/08/12 07:34:41;;;;;;;1.30;0.80;;;24.70;59.10;;;;;;4864737;29;20052;-84
2022/08/12 07:37:08;;;;;;;2.13;0.90;;;24.70;59.40;;;;;;4864606;29;20059;-89
2022/08/12 07:39:35;;;;;;;3.63;0.80;;;24.80;59.40;;;;;;4873385;29;20043;-91
2022/08/12 07:42:17;;;;;;;1.30;0.70;;;25.00;59.00;;;;;;4860173;29;20058;-87
2022/08/12 07:44:46;;;;;;;1.63;0.70;;;25.00;58.30;;;;;;4862424;29;20143;-90
2022/08/12 07:47:17;;;;;;;1.45;0.80;;;24.90;58.20;;;;;;4855529;29;20070;-86
2022/08/12 07:49:44;;;;;;;2.58;0.80;;;25.00;59.00;;;;;;4860985;29;20192;-89
2022/08/12 07:52:37;;;;;;;2.22;0.70;;;25.00;58.40;;;;;;4864066;29;20051;-85
2022/08/12 07:55:05;;;;;;;1.77;0.70;;;25.20;58.00;;;;;;4891917;29;20061;-89
2022/08/12 07:57:33;;;;;;;3.08;0.90;;;25.20;58.00;;;;;;4863664;29;20055;-89
2022/08/12 08:00:04;;;;;;;2.67;0.70;;;25.50;58.70;;;;;;4878837;29;20048;-89
2022/08/12 08:02:35;;;;;;;1.40;0.70;;;25.30;57.30;;;;;;4873875;29;20060;-89
2022/08/12 08:05:04;;;;;;;2.85;0.73;;;25.30;57.40;;;;;;4861346;29;20105;-89
2022/08/12 08:07:32;;;;;;;2.80;0.70;;;25.50;57.80;;;;;;4876340;29;20051;-86
2022/08/12 08:10:03;;;;;;;1.48;0.50;;;25.50;57.10;;;;;;4875605;29;20040;-90
2022/08/12 08:15:16;;;;;;;1.92;0.75;;;25.40;57.30;;;;;;4868151;29;20051;-88
2022/08/12 08:17:56;;;;;;;4.45;0.70;;;25.60;57.40;;;;;;4853687;29;20067;-90
2022/08/12 08:20:28;;;;;;;2.38;0.90;;;25.50;57.10;;;;;;4859235;29;20099;-92
2022/08/12 08:22:58;;;;;;;1.58;0.73;;;25.60;56.90;;;;;;4865232;29;20139;-89
2022/08/12 08:25:29;;;;;;;1.77;0.50;;;25.70;56.90;;;;;;4861215;29;20037;-90
2022/08/12 08:28:15;;;;;;;1.63;0.80;;;25.70;56.70;;;;;;4878757;29;20048;-89
2022/08/12 08:30:46;;;;;;;1.45;0.60;;;25.80;56.30;;;;;;4873726;29;20052;-88
2022/08/12 08:33:17;;;;;;;2.50;0.65;;;25.90;56.90;;;;;;4869278;29;20080;-85
2022/08/12 08:36:05;;;;;;;1.67;0.77;;;26.00;56.50;;;;;;4878241;29;20051;-87
2022/08/12 08:38:44;;;;;;;1.98;0.90;;;26.00;56.20;;;;;;4857169;29;20128;-88
2022/08/12 08:44:37;;;;;;;1.90;0.70;;;26.20;56.60;;;;;;4883988;29;20052;-85
2022/08/12 08:47:06;;;;;;;2.83;0.73;;;26.20;56.00;;;;;;4878462;29;20514;-83
2022/08/12 08:49:37;;;;;;;1.42;0.70;;;26.30;56.00;;;;;;4856321;29;20052;-84
2022/08/12 08:52:05;;;;;;;0.98;0.55;;;26.20;55.60;;;;;;4870881;29;20059;-88
2022/08/12 08:54:33;;;;;;;1.38;0.65;;;26.30;56.50;;;;;;4884506;29;20060;-85
2022/08/12 08:57:01;;;;;;;2.60;0.80;;;26.50;55.80;;;;;;4873458;29;20044;-88
2022/08/12 08:59:29;;;;;;;1.50;0.45;;;26.60;55.80;;;;;;4870743;29;20064;-86
2022/08/12 09:01:58;;;;;;;2.03;0.65;;;26.60;55.30;;;;;;4854784;29;20048;-82
2022/08/12 09:04:26;;;;;;;1.83;0.90;;;26.70;55.10;;;;;;4866542;29;20052;-85
2022/08/12 09:07:16;;;;;;;2.47;1.10;;;26.50;55.10;;;;;;4860694;29;20049;-86
2022/08/12 09:10:05;;;;;;;1.33;0.60;;;26.40;55.80;;;;;;4876553;29;20059;-89
2022/08/12 09:15:58;;;;;;;2.63;0.90;;;26.70;56.20;;;;;;4874276;29;20179;-84
2022/08/12 09:18:26;;;;;;;1.08;0.60;;;26.30;55.30;;;;;;4879617;29;20063;-89
2022/08/12 09:20:59;;;;;;;2.22;0.77;;;26.20;56.00;;;;;;4873110;29;20060;-89
2022/08/12 09:23:48;;;;;;;2.25;0.60;;;26.30;56.00;;;;;;4859241;29;20048;-91
2022/08/12 09:26:37;;;;;;;1.95;0.50;;;26.20;55.40;;;;;;4862963;29;20045;-88
2022/08/12 09:29:24;;;;;;;0.90;0.60;;;26.40;55.40;;;;;;4894598;29;20044;-91
2022/08/12 09:32:12;;;;;;;1.25;0.90;;;26.60;55.00;;;;;;4874028;29;20041;-90
2022/08/12 09:34:59;;;;;;;2.63;0.73;;;26.70;54.90;;;;;;4881244;29;20048;-93
2022/08/12 09:37:27;;;;;;;2.55;0.70;;;26.80;54.80;;;;;;4860791;29;20049;-93
2022/08/12 09:40:17;;;;;;;3.58;0.70;;;26.70;54.70;;;;;;4862377;29;20044;-91
2022/08/12 09:45:52;;;;;;;1.92;0.60;;;26.80;54.70;;;;;;4878502;29;20040;-93
2022/08/12 09:48:39;;;;;;;1.60;0.60;;;26.90;55.00;;;;;;4883319;29;20123;-89
2022/08/12 09:51:23;;;;;;;1.85;0.70;;;26.90;54.00;;;;;;4864230;29;20135;-91
2022/08/12 09:54:04;;;;;;;2.22;0.60;;;26.80;53.80;;;;;;4879441;29;20061;-86
2022/08/12 09:56:52;;;;;;;1.13;0.75;;;26.70;54.10;;;;;;4876865;29;20045;-86
2022/08/12 09:59:29;;;;;;;1.33;0.60;;;26.60;54.10;;;;;;4882564;29;20052;-89
2022/08/12 10:02:17;;;;;;;2.47;0.55;;;26.70;55.30;;;;;;4863549;29;20040;-88
2022/08/12 10:05:07;;;;;;;2.58;0.65;;;26.80;54.30;;;;;;4867248;29;20049;-87
2022/08/12 10:07:43;;;;;;;1.75;0.50;;;26.70;54.10;;;;;;4863292;29;20104;-91
2022/08/12 10:10:10;;;;;;;1.10;0.50;;;26.70;54.30;;;;;;4871887;29;20048;-87
2022/08/12 10:16:04;;;;;;;1.77;0.60;;;26.80;54.60;;;;;;4882137;29;20045;-88
2022/08/12 10:18:36;;;;;;;1.85;0.77;;;26.80;54.30;;;;;;4880091;29;20044;-88
2022/08/12 10:21:40;;;;;;;3.50;0.50;;;26.50;54.90;;;;;;4866487;29;20053;-91
2022/08/12 10:24:14;;;;;;;2.00;0.60;;;26.70;54.50;;;;;;4861645;29;20056;-88
2022/08/12 10:29:43;;;;;;;1.45;0.50;;;26.40;54.90;;;;;;4878113;29;20498;-87
2022/08/12 10:32:30;;;;;;;1.17;0.50;;;26.50;54.40;;;;;;4863970;29;20041;-89
2022/08/12 10:35:14;;;;;;;2.90;0.50;;;26.70;54.00;;;;;;4862439;29;20071;-93
2022/08/12 10:37:44;;;;;;;1.80;0.50;;;26.80;53.70;;;;;;4858830;29;20329;-85
2022/08/12 10:40:31;;;;;;;2.95;0.68;;;26.70;54.20;;;;;;4881737;29;20044;-90
2022/08/12 10:45:53;;;;;;;2.10;1.13;;;26.80;54.30;;;;;;4890460;29;20077;-90
2022/08/12 10:48:25;;;;;;;2.78;0.60;;;27.20;54.60;;;;;;4877627;29;20840;-88
2022/08/12 10:51:05;;;;;;;1.30;0.60;;;27.30;54.30;;;;;;4876753;29;20056;-90
2022/08/12 10:53:55;;;;;;;;;;;27.40;53.80;;;;;;4865181;29;21620;-93
2022/08/12 10:56:33;;;;;;;1.27;0.73;;;27.20;53.20;;;;;;4862013;29;19931;-92
2022/08/12 10:59:03;;;;;;;1.80;0.68;;;26.90;53.60;;;;;;4877430;29;20521;-91
2022/08/12 11:01:41;;;;;;;1.30;0.65;;;26.90;54.00;;;;;;4864023;29;20474;-90
2022/08/12 11:04:30;;;;;;;2.17;0.80;;;27.00;54.10;;;;;;4865116;29;20051;-86
2022/08/12 11:07:16;;;;;;;2.85;0.85;;;26.70;54.10;;;;;;4867452;29;20048;-89
2022/08/12 11:10:04;;;;;;;2.55;0.82;;;26.90;54.70;;;;;;4868491;29;20510;-91
2022/08/12 11:12:31;;;;;;;1.35;0.70;;;27.00;54.40;;;;;;4877564;29;20045;-86
2022/08/12 11:15:20;;;;;;;1.27;0.57;;;27.20;54.00;;;;;;4860358;29;20099;-88
2022/08/12 11:18:08;;;;;;;1.88;0.73;;;27.30;53.40;;;;;;4863308;29;20045;-86
2022/08/12 11:20:46;;;;;;;0.93;0.50;;;27.20;53.50;;;;;;4869220;29;20048;-89
2022/08/12 11:23:15;;;;;;;1.65;0.70;;;27.20;53.40;;;;;;4879434;29;20076;-86
2022/08/12 11:26:05;;;;;;;1.00;0.70;;;27.20;53.50;;;;;;4875018;29;20143;-88
2022/08/12 11:28:35;;;;;;;1.17;0.60;;;27.00;53.50;;;;;;4876629;29;20060;-88
2022/08/12 11:31:06;;;;;;;1.73;0.65;;;27.00;54.10;;;;;;4858512;29;20053;-87
2022/08/12 11:33:41;;;;;;;2.00;1.02;;;27.10;53.60;;;;;;4878474;29;20076;-86
2022/08/12 11:36:29;;;;;;;0.85;0.47;;;27.20;53.80;;;;;;4865130;29;20053;-91
2022/08/12 11:38:57;;;;;;;4.00;0.70;;;27.30;53.70;;;;;;4880911;29;20036;-90
2022/08/12 11:41:33;;;;;;;2.00;0.80;;;27.40;53.40;;;;;;4869591;29;20127;-94
2022/08/12 11:44:01;;;;;;;2.38;0.80;;;27.50;53.60;;;;;;4875816;29;20049;-90
2022/08/12 11:46:50;;;;;;;1.08;0.57;;;27.30;53.30;;;;;;4860898;29;20048;-88
2022/08/12 11:49:23;;;;;;;1.20;0.60;;;27.10;53.80;;;;;;4873719;29;20049;-88
2022/08/12 11:52:02;;;;;;;1.33;0.85;;;27.30;53.80;;;;;;4871751;29;20068;-89
2022/08/12 12:18:10;;;;;;;3.05;0.45;;;27.60;53.90;;;;;;4877938;29;20047;-91
2022/08/12 12:25:36;;;;;;;;;;;27.70;52.20;;;;;;4876737;29;20048;-88
2022/08/12 12:32:42;;;;;;;2.00;0.77;;;27.50;52.00;;;;;;4870322;29;20041;-94
2022/08/12 12:35:19;;;;;;;0.60;0.40;;;27.40;52.00;;;;;;4856473;29;20056;-91
2022/08/12 12:38:11;;;;;;;2.55;0.80;;;27.40;52.30;;;;;;4859998;29;20104;-88
2022/08/12 12:40:40;;;;;;;;;;;27.40;53.00;;;;;;4844853;29;20044;-88
2022/08/12 12:43:11;;;;;;;2.20;0.50;;;27.40;51.70;;;;;;4863113;29;19931;-92
2022/08/12 12:45:41;;;;;;;1.08;0.60;;;27.40;51.90;;;;;;4860391;29;20061;-94
2022/08/12 12:48:17;;;;;;;1.75;0.50;;;27.40;53.30;;;;;;4869813;29;20049;-94
2022/08/12 12:54:00;;;;;;;1.00;0.50;;;27.60;50.30;;;;;;4871369;29;20041;-92
2022/08/12 12:56:39;;;;;;;1.25;0.60;;;27.90;50.80;;;;;;4858374;29;20140;-90
2022/08/12 12:59:07;;;;;;;1.10;0.40;;;27.90;49.90;;;;;;4843119;29;20064;-87
2022/08/12 13:01:54;;;;;;;2.95;0.70;;;27.80;49.80;;;;;;4854421;29;20048;-85
2022/08/12 13:04:23;;;;;;;1.80;0.55;;;27.90;50.20;;;;;;4840109;29;20053;-91
2022/08/12 13:06:53;;;;;;;1.23;0.60;;;28.00;49.40;;;;;;4852406;29;20508;-87
2022/08/12 13:09:20;;;;;;;1.38;0.73;;;28.10;48.90;;;;;;4861069;29;20049;-86
2022/08/12 13:11:49;;;;;;;0.80;0.30;;;28.30;49.00;;;;;;4853133;29;20046;-88
2022/08/12 13:14:20;;;;;;;0.93;0.47;;;28.40;49.40;;;;;;4856769;29;20093;-92
2022/08/12 13:16:59;;;;;;;1.25;0.57;;;28.60;48.10;;;;;;4856899;29;20041;-93
2022/08/12 13:19:35;;;;;;;1.17;0.65;;;28.70;49.10;;;;;;4844838;29;20049;-90
2022/08/12 13:22:17;;;;;;;0.85;0.40;;;28.60;48.50;;;;;;4856641;29;20427;-89
2022/08/12 13:24:47;;;;;;;1.15;0.57;;;28.60;48.60;;;;;;4850080;29;20135;-88
2022/08/12 13:27:34;;;;;;;1.35;0.50;;;28.30;48.70;;;;;;4853533;29;20155;-89
2022/08/12 13:30:11;;;;;;;2.45;0.50;;;28.10;49.20;;;;;;4841092;29;20414;-91
2022/08/12 13:32:41;;;;;;;1.67;0.60;;;28.10;48.60;;;;;;4843045;29;20056;-90
2022/08/12 13:35:26;;;;;;;1.38;0.40;;;28.10;49.10;;;;;;4848516;29;20144;-88
2022/08/12 13:38:13;;;;;;;2.35;0.60;;;28.10;47.50;;;;;;4873821;29;20053;-86
2022/08/12 13:40:57;;;;;;;1.38;0.50;;;28.10;48.60;;;;;;4852498;29;20060;-87
2022/08/12 13:43:24;;;;;;;;;;;28.10;48.40;;;;;;4852030;29;20117;-85
2022/08/12 13:46:08;;;;;;;3.17;0.60;;;28.10;48.50;;;;;;4859039;29;20399;-91
2022/08/12 13:48:41;;;;;;;1.03;0.47;;;27.90;48.70;;;;;;4854083;29;20060;-86
2022/08/12 13:51:12;;;;;;;0.85;0.40;;;27.80;49.00;;;;;;4851952;29;20065;-86
2022/08/12 13:53:40;;;;;;;1.17;0.47;;;27.80;48.90;;;;;;4860610;29;20595;-85
2022/08/12 13:56:26;;;;;;;0.70;0.50;;;27.80;49.20;;;;;;4860396;29;20048;-91
2022/08/12 13:59:06;;;;;;;1.73;0.47;;;27.80;49.30;;;;;;4864929;29;20057;-89
2022/08/12 14:01:36;;;;;;;0.82;0.50;;;27.80;49.40;;;;;;4861042;29;20057;-88
2022/08/12 14:04:10;;;;;;;3.08;0.35;;;27.90;49.50;;;;;;4871182;29;20403;-88
2022/08/12 14:06:39;;;;;;;0.88;0.40;;;28.00;50.10;;;;;;4856587;29;20055;-93
2022/08/12 14:09:07;;;;;;;2.08;0.52;;;28.20;49.30;;;;;;4861732;29;20053;-85
2022/08/12 14:11:46;;;;;;;2.15;0.50;;;28.40;48.70;;;;;;4857203;29;20802;-88
2022/08/12 14:14:29;;;;;;;1.27;0.40;;;28.30;48.90;;;;;;4860191;29;20055;-92
2022/08/12 14:17:02;;;;;;;2.17;0.50;;;28.10;48.90;;;;;;4846081;29;20478;-90
2022/08/12 14:19:34;;;;;;;2.35;1.48;;;28.20;49.20;;;;;;4861196;29;20089;-87
2022/08/12 14:22:19;;;;;;;2.13;0.60;;;28.40;49.60;;;;;;4856895;29;20057;-90
2022/08/12 14:24:52;;;;;;;1.10;0.73;;;28.50;48.70;;;;;;4851589;29;20045;-87
2022/08/12 14:27:19;;;;;;;3.40;0.40;;;28.30;50.30;;;;;;4858634;29;20049;-87
2022/08/12 14:30:07;;;;;;;2.92;0.50;;;28.20;49.60;;;;;;4853788;29;20057;-89
2022/08/12 14:32:43;;;;;;;1.15;0.40;;;28.40;49.60;;;;;;4859070;29;20056;-88
2022/08/12 14:35:11;;;;;;;1.35;0.50;;;28.60;48.50;;;;;;4857571;29;20076;-88
2022/08/12 14:37:40;;;;;;;1.55;0.40;;;28.60;48.00;;;;;;4867554;29;20052;-87
2022/08/12 14:40:27;;;;;;;3.05;0.70;;;28.80;47.70;;;;;;4869177;29;20402;-94
2022/08/12 14:42:57;;;;;;;1.85;0.43;;;28.70;47.30;;;;;;4857709;29;20044;-89
2022/08/12 14:45:25;;;;;;;1.55;0.70;;;28.60;47.90;;;;;;4878755;29;20060;-89
2022/08/12 14:48:14;;;;;;;1.00;0.40;;;28.50;47.70;;;;;;4851391;29;20056;-90
2022/08/12 14:50:42;;;;;;;0.85;0.40;;;28.40;48.20;;;;;;4860453;29;20060;-92
2022/08/12 14:53:30;;;;;;;3.60;0.73;;;28.30;48.80;;;;;;4851023;29;20045;-92
2022/08/12 14:56:20;;;;;;;2.80;1.05;;;28.20;49.30;;;;;;4862426;29;20550;-87
2022/08/12 15:02:19;;;;;;;1.08;0.50;;;28.00;48.40;;;;;;4876159;29;20066;-86
2022/08/12 15:04:54;;;;;;;2.85;0.45;;;28.00;48.70;;;;;;4861865;29;20045;-89
2022/08/12 15:07:22;;;;;;;1.38;0.40;;;28.10;49.00;;;;;;4860291;29;20063;-87
2022/08/12 15:10:12;;;;;;;1.08;0.40;;;28.00;48.40;;;;;;4857339;29;20057;-86
2022/08/12 15:12:39;;;;;;;1.20;0.45;;;28.00;48.50;;;;;;4861286;29;20099;-91
2022/08/12 15:15:07;;;;;;;4.57;0.40;;;28.00;48.90;;;;;;4868910;29;20132;-89
2022/08/12 15:17:38;;;;;;;0.90;0.45;;;28.00;48.00;;;;;;4847385;29;20052;-89
2022/08/12 15:20:07;;;;;;;1.05;0.70;;;28.10;48.00;;;;;;4858456;29;20059;-91
2022/08/12 15:22:55;;;;;;;2.35;0.63;;;28.00;48.30;;;;;;4853737;29;20108;-89
2022/08/12 15:25:25;;;;;;;0.80;0.40;;;28.00;48.50;;;;;;4859212;29;20077;-90
2022/08/12 15:27:53;;;;;;;1.15;0.35;;;28.00;48.30;;;;;;4852920;29;20044;-84
2022/08/12 15:30:38;;;;;;;0.90;0.50;;;28.00;48.20;;;;;;4858962;29;20109;-83
2022/08/12 15:33:10;;;;;;;1.27;0.30;;;27.90;49.50;;;;;;4868355;29;20049;-84
2022/08/12 15:35:44;;;;;;;1.10;0.40;;;27.90;48.00;;;;;;4859862;29;20144;-85
2022/08/12 15:38:20;;;;;;;1.02;0.45;;;27.80;48.20;;;;;;4859933;29;20112;-84
2022/08/12 15:40:52;;;;;;;0.80;0.52;;;27.70;48.50;;;;;;4865184;29;20045;-85
2022/08/12 15:43:22;;;;;;;2.05;0.40;;;27.70;48.90;;;;;;4855327;29;20072;-84
2022/08/12 15:46:10;;;;;;;1.45;0.65;;;27.80;48.00;;;;;;4848775;29;20045;-85
2022/08/12 15:48:45;;;;;;;3.50;0.95;;;27.80;47.40;;;;;;4860746;29;20088;-86
2022/08/12 15:51:31;;;;;;;0.63;0.40;;;27.60;47.70;;;;;;4863205;29;20497;-85
2022/08/12 15:54:19;;;;;;;0.70;0.40;;;27.50;47.70;;;;;;4861913;29;20092;-87
2022/08/12 15:57:01;;;;;;;2.33;0.47;;;27.50;49.00;;;;;;4859704;29;20048;-86
2022/08/12 15:59:29;;;;;;;1.63;0.35;;;27.50;49.50;;;;;;4859210;29;20048;-84
2022/08/12 16:02:17;;;;;;;3.45;0.60;;;27.50;48.30;;;;;;4864734;29;20136;-87
2022/08/12 16:04:49;;;;;;;2.58;0.50;;;27.50;48.90;;;;;;4847747;29;20063;-87
2022/08/12 16:07:23;;;;;;;0.93;0.50;;;27.40;49.00;;;;;;4868963;29;20102;-88
2022/08/12 16:09:59;;;;;;;;;;;27.50;48.10;;;;;;4864006;29;20048;-88
2022/08/12 16:12:43;;;;;;;1.48;0.73;;;27.50;49.60;;;;;;4862900;29;19943;-87
2022/08/12 16:15:24;;;;;;;0.70;0.30;;;27.40;48.10;;;;;;4857359;29;20049;-88
2022/08/12 16:17:54;;;;;;;1.58;0.73;;;27.30;48.70;;;;;;4862757;29;20049;-87
2022/08/12 16:20:42;;;;;;;0.75;0.30;;;27.30;48.70;;;;;;4845866;29;20056;-84
2022/08/12 16:23:16;;;;;;;1.67;0.50;;;27.30;48.60;;;;;;4861534;29;20053;-88
2022/08/12 16:26:08;;;;;;;1.23;0.47;;;27.30;48.30;;;;;;4848170;29;20730;-87
2022/08/12 16:28:44;;;;;;;1.48;0.70;;;27.30;48.00;;;;;;4862326;29;20512;-83
2022/08/12 16:31:14;;;;;;;6.32;0.68;;;27.30;48.00;;;;;;4859649;29;20426;-83
2022/08/12 16:33:50;;;;;;;2.55;0.80;;;27.40;47.90;;;;;;4851322;29;20081;-86
2022/08/12 16:36:26;;;;;;;2.55;0.93;;;27.40;48.40;;;;;;4856022;29;20053;-87
2022/08/12 16:38:53;;;;;;;1.63;0.50;;;27.30;48.40;;;;;;4850894;29;20110;-88
2022/08/12 16:41:21;;;;;;;2.70;0.77;;;27.50;49.20;;;;;;4856180;29;20060;-85
2022/08/12 16:43:51;;;;;;;0.90;0.55;;;27.60;49.80;;;;;;4857149;29;20045;-85
2022/08/12 16:46:21;;;;;;;2.95;0.50;;;27.60;49.90;;;;;;4857904;29;20053;-85
2022/08/12 16:49:00;;;;;;;0.98;0.68;;;27.60;50.40;;;;;;4853164;29;20046;-86
2022/08/12 16:51:35;;;;;;;3.97;0.70;;;27.70;50.30;;;;;;4864465;29;20112;-86
2022/08/12 16:54:07;;;;;;;2.95;0.75;;;27.60;50.70;;;;;;4857372;29;20056;-84
2022/08/12 16:56:43;;;;;;;2.70;0.68;;;27.60;50.50;;;;;;4856402;29;20049;-85
2022/08/12 16:59:25;;;;;;;2.25;0.95;;;27.50;50.70;;;;;;4838556;29;20057;-84
2022/08/12 17:02:13;;;;;;;2.33;0.55;;;27.50;50.80;;;;;;4854251;29;20045;-86
2022/08/12 17:05:02;;;;;;;2.28;0.50;;;27.40;50.90;;;;;;4852814;29;20413;-86
2022/08/12 17:07:36;;;;;;;3.45;0.70;;;27.40;51.20;;;;;;4855389;29;20429;-87
2022/08/12 17:10:13;;;;;;;1.83;0.50;;;27.40;50.80;;;;;;4846972;29;20062;-86
2022/08/12 17:13:01;;;;;;;2.25;0.57;;;27.40;50.40;;;;;;4849454;29;20052;-87
2022/08/12 17:15:37;;;;;;;3.92;0.90;;;27.30;50.50;;;;;;4842290;29;20053;-85
2022/08/12 17:18:29;;;;;;;2.45;1.27;;;27.20;49.70;;;;;;4855396;29;20486;-86
2022/08/12 17:21:17;;;;;;;1.48;0.82;;;27.20;48.50;;;;;;4851318;29;20049;-85
2022/08/12 17:24:10;;;;;;;2.28;1.20;;;27.10;47.90;;;;;;4853559;29;20708;-87
2022/08/12 17:26:43;;;;;;;2.97;1.10;;;27.10;48.00;;;;;;4867692;29;20169;-88
2022/08/12 17:29:20;;;;;;;1.67;0.80;;;27.00;47.70;;;;;;4852501;29;20133;-85
2022/08/12 17:32:08;;;;;;;2.00;0.60;;;27.00;47.80;;;;;;4855560;29;20313;-86
2022/08/12 17:37:43;;;;;;;1.65;0.88;;;26.90;47.80;;;;;;4822626;29;20056;-85
2022/08/12 17:40:11;;;;;;;1.83;0.70;;;26.80;48.40;;;;;;4822951;29;20043;-86
2022/08/12 17:43:00;;;;;;;1.95;0.70;;;26.70;49.40;;;;;;4847561;29;20049;-86
2022/08/12 17:45:29;;;;;;;0.93;0.68;;;26.60;49.50;;;;;;4857667;29;20053;-86
2022/08/12 17:48:02;;;;;;;2.65;0.77;;;26.50;49.40;;;;;;4857173;29;20050;-87
2022/08/12 17:50:41;;;;;;;1.42;0.75;;;26.50;48.80;;;;;;4874074;29;20121;-86
2022/08/12 17:53:09;;;;;;;3.42;0.75;;;26.40;49.00;;;;;;4851271;29;20049;-88
2022/08/12 17:55:39;;;;;;;2.88;1.08;;;26.30;49.30;;;;;;4853443;29;20049;-86
2022/08/12 17:58:16;;;;;;;1.27;0.77;;;26.30;49.30;;;;;;4859785;29;20137;-87
2022/08/12 18:00:44;;;;;;;1.77;1.20;;;26.20;49.50;;;;;;4860128;29;20492;-86
2022/08/12 18:03:18;;;;;;;3.80;1.88;;;26.10;49.30;;;;;;4842252;29;20046;-87
2022/08/12 18:06:06;;;;;;;4.10;2.17;;;26.00;50.30;;;;;;4855215;29;20095;-87
2022/08/12 18:08:42;;;;;;;3.33;2.30;;;25.90;51.20;;;;;;4855752;29;20053;-87
2022/08/12 18:14:28;;;;;;;9.88;5.00;;;25.80;51.60;;;;;;4875282;29;20053;-87
2022/08/12 18:17:00;;;;;;;8.50;1.23;;;25.70;51.50;;;;;;4844660;29;20056;-88
2022/08/12 18:19:29;;;;;;;3.85;1.08;;;25.60;51.70;;;;;;4870589;29;20121;-88